Hlavní strana
METAR-TAF:

METAR-TAF

Letiště :

Visby, Gotland, Švédsko

zeměpisná šířka: 57-40N, zeměpisná délka: 018-21E, výška: 51 m

Aktuální stav počasí

Zpráva byla vytvořena před 40 minutami, v 16:50 UTC
Severoseverozápadní vítr 17 kt
Teplota 0°C
Vlhkost vzduchu 51%
Tlak 1011 hPa
Viditelnost 10 km a více
Žádná oblačnost pod 1500 m, nevyskytují se cumulonimby.

METAR: ESSV 071650Z 34017KT CAVOK 00/M09 Q1011 R03/09//95

Čas: 18:30 (17:30 UTC)

Předpověď počasí

Zpráva byla vytvořena před 3 hodinami a 0 minutami, v 14:30 UTC
Předpověď platná od 07 v 15 UTC do 07 v 20 UTC
Severozápadní vítr 20 kt s nárazy do 32 kt
Viditelnost 10 km a více
Oblačno až skoro zataženo ve výšce 4000 ft

TAF: ESSV 071430Z 0715/0720 32020G32KT 9999 BKN040

Stav a předpovědi počasí z více než 4 000 letišť (zprávy METAR a TAF).

Červené a žluté tečky na mapě představují dostupné meteorologické stanice.

Když kurzor umístíte na tečku, zobrazí se název stanice.

Pak kliknutím zobrazíte stav a předpověď počasí.

Chcete-li změnit mapu, kliknutím na zelené tlačítko se znaménkem +mapu přiblížíte, kliknutím na zelené tlačítko se znaménkem – mapu oddálíte a kliknutím na zelené šipky přejdete na sousední mapy.


METAR-TAF: